sensor_id;sensor_type;location;lat;lon;timestamp;temperature;humidity
8563;DHT22;16392;52.508;13.468;2023-09-19T00:00:25;17.90;99.90
8563;DHT22;16392;52.508;13.468;2023-09-19T00:02:53;17.90;99.90
8563;DHT22;16392;52.508;13.468;2023-09-19T00:05:21;17.90;99.90
8563;DHT22;16392;52.508;13.468;2023-09-19T00:07:50;17.90;99.90
8563;DHT22;16392;52.508;13.468;2023-09-19T00:10:19;17.80;99.90
8563;DHT22;16392;52.508;13.468;2023-09-19T00:12:47;17.80;99.90
8563;DHT22;16392;52.508;13.468;2023-09-19T00:15:14;17.80;99.90
8563;DHT22;16392;52.508;13.468;2023-09-19T00:17:43;17.80;99.90
8563;DHT22;16392;52.508;13.468;2023-09-19T00:20:10;17.80;99.90
8563;DHT22;16392;52.508;13.468;2023-09-19T00:22:40;17.70;99.90
8563;DHT22;16392;52.508;13.468;2023-09-19T00:25:08;17.70;99.90
8563;DHT22;16392;52.508;13.468;2023-09-19T00:27:37;17.70;99.90
8563;DHT22;16392;52.508;13.468;2023-09-19T00:30:07;17.70;99.90
8563;DHT22;16392;52.508;13.468;2023-09-19T00:32:40;17.70;99.90
8563;DHT22;16392;52.508;13.468;2023-09-19T00:35:07;17.70;99.90
8563;DHT22;16392;52.508;13.468;2023-09-19T00:37:34;17.70;99.90
8563;DHT22;16392;52.508;13.468;2023-09-19T00:40:03;17.70;99.90
8563;DHT22;16392;52.508;13.468;2023-09-19T00:42:31;17.60;99.90
8563;DHT22;16392;52.508;13.468;2023-09-19T00:44:59;17.70;99.90
8563;DHT22;16392;52.508;13.468;2023-09-19T00:47:28;17.60;99.90
8563;DHT22;16392;52.508;13.468;2023-09-19T00:49:56;17.50;99.90
8563;DHT22;16392;52.508;13.468;2023-09-19T00:52:22;17.50;99.90
8563;DHT22;16392;52.508;13.468;2023-09-19T00:54:49;17.50;99.90
8563;DHT22;16392;52.508;13.468;2023-09-19T00:57:19;17.50;99.90
8563;DHT22;16392;52.508;13.468;2023-09-19T00:59:49;17.40;99.90
8563;DHT22;16392;52.508;13.468;2023-09-19T01:02:16;17.40;99.90
8563;DHT22;16392;52.508;13.468;2023-09-19T01:04:44;17.40;99.90
8563;DHT22;16392;52.508;13.468;2023-09-19T01:07:11;17.40;99.90
8563;DHT22;16392;52.508;13.468;2023-09-19T01:09:38;17.40;99.90
8563;DHT22;16392;52.508;13.468;2023-09-19T01:12:06;17.30;99.90
8563;DHT22;16392;52.508;13.468;2023-09-19T01:14:41;17.30;99.90
8563;DHT22;16392;52.508;13.468;2023-09-19T01:17:16;17.30;99.90
8563;DHT22;16392;52.508;13.468;2023-09-19T01:20:15;17.30;99.90
8563;DHT22;16392;52.508;13.468;2023-09-19T01:22:52;17.30;99.90
8563;DHT22;16392;52.508;13.468;2023-09-19T01:28:30;17.30;99.90
8563;DHT22;16392;52.508;13.468;2023-09-19T01:31:04;17.20;99.90
8563;DHT22;16392;52.508;13.468;2023-09-19T01:33:53;17.30;99.90
8563;DHT22;16392;52.508;13.468;2023-09-19T01:36:20;17.30;99.90
8563;DHT22;16392;52.508;13.468;2023-09-19T01:38:48;17.30;99.90
8563;DHT22;16392;52.508;13.468;2023-09-19T01:41:19;17.30;99.90
8563;DHT22;16392;52.508;13.468;2023-09-19T01:43:49;17.40;99.90
8563;DHT22;16392;52.508;13.468;2023-09-19T01:46:22;17.30;99.90
8563;DHT22;16392;52.508;13.468;2023-09-19T01:48:56;17.30;99.90
8563;DHT22;16392;52.508;13.468;2023-09-19T01:51:32;17.30;99.90
8563;DHT22;16392;52.508;13.468;2023-09-19T01:54:02;17.30;99.90
8563;DHT22;16392;52.508;13.468;2023-09-19T01:56:36;17.30;99.90
8563;DHT22;16392;52.508;13.468;2023-09-19T01:59:06;17.30;99.90
8563;DHT22;16392;52.508;13.468;2023-09-19T02:01:37;17.30;99.90
8563;DHT22;16392;52.508;13.468;2023-09-19T02:04:04;17.40;99.90
8563;DHT22;16392;52.508;13.468;2023-09-19T02:06:32;17.30;99.90
8563;DHT22;16392;52.508;13.468;2023-09-19T02:08:59;17.30;99.90
8563;DHT22;16392;52.508;13.468;2023-09-19T02:11:26;17.20;99.90
8563;DHT22;16392;52.508;13.468;2023-09-19T02:13:53;17.20;99.90
8563;DHT22;16392;52.508;13.468;2023-09-19T02:16:20;17.10;99.90
8563;DHT22;16392;52.508;13.468;2023-09-19T02:18:48;17.00;99.90
8563;DHT22;16392;52.508;13.468;2023-09-19T02:21:16;17.00;99.90
8563;DHT22;16392;52.508;13.468;2023-09-19T02:23:42;16.80;99.90
8563;DHT22;16392;52.508;13.468;2023-09-19T02:26:09;16.90;99.90
8563;DHT22;16392;52.508;13.468;2023-09-19T02:28:37;16.80;99.90
8563;DHT22;16392;52.508;13.468;2023-09-19T02:31:03;16.80;99.90
8563;DHT22;16392;52.508;13.468;2023-09-19T02:33:31;16.90;99.90
8563;DHT22;16392;52.508;13.468;2023-09-19T02:35:59;16.90;99.90
8563;DHT22;16392;52.508;13.468;2023-09-19T02:38:26;16.90;99.90
8563;DHT22;16392;52.508;13.468;2023-09-19T02:40:53;16.80;99.90
8563;DHT22;16392;52.508;13.468;2023-09-19T02:43:20;16.90;99.90
8563;DHT22;16392;52.508;13.468;2023-09-19T02:45:47;16.80;99.90
8563;DHT22;16392;52.508;13.468;2023-09-19T02:48:15;16.80;99.90
8563;DHT22;16392;52.508;13.468;2023-09-19T02:50:42;16.70;99.90
8563;DHT22;16392;52.508;13.468;2023-09-19T02:53:10;16.70;99.90
8563;DHT22;16392;52.508;13.468;2023-09-19T02:55:38;16.70;99.90
8563;DHT22;16392;52.508;13.468;2023-09-19T02:58:06;16.70;99.90
8563;DHT22;16392;52.508;13.468;2023-09-19T03:00:33;16.80;99.90
8563;DHT22;16392;52.508;13.468;2023-09-19T03:03:01;16.80;99.90
8563;DHT22;16392;52.508;13.468;2023-09-19T03:05:28;16.80;99.90
8563;DHT22;16392;52.508;13.468;2023-09-19T03:07:56;16.80;99.90
8563;DHT22;16392;52.508;13.468;2023-09-19T03:10:27;16.90;99.90
8563;DHT22;16392;52.508;13.468;2023-09-19T03:12:55;16.90;99.90
8563;DHT22;16392;52.508;13.468;2023-09-19T03:15:21;16.90;99.90
8563;DHT22;16392;52.508;13.468;2023-09-19T03:17:49;16.90;99.90
8563;DHT22;16392;52.508;13.468;2023-09-19T03:20:17;16.90;99.90
8563;DHT22;16392;52.508;13.468;2023-09-19T03:22:44;17.00;99.90
8563;DHT22;16392;52.508;13.468;2023-09-19T03:25:11;17.00;99.90
8563;DHT22;16392;52.508;13.468;2023-09-19T03:27:39;17.10;99.90
8563;DHT22;16392;52.508;13.468;2023-09-19T03:30:07;17.10;99.90
8563;DHT22;16392;52.508;13.468;2023-09-19T03:32:34;17.20;99.90
8563;DHT22;16392;52.508;13.468;2023-09-19T03:35:01;17.10;99.90
8563;DHT22;16392;52.508;13.468;2023-09-19T03:37:28;17.10;99.90
8563;DHT22;16392;52.508;13.468;2023-09-19T03:39:54;17.20;99.90
8563;DHT22;16392;52.508;13.468;2023-09-19T03:42:21;17.20;99.90
8563;DHT22;16392;52.508;13.468;2023-09-19T03:44:52;17.20;99.90
8563;DHT22;16392;52.508;13.468;2023-09-19T03:47:20;17.20;99.90
8563;DHT22;16392;52.508;13.468;2023-09-19T03:49:47;17.20;99.90
8563;DHT22;16392;52.508;13.468;2023-09-19T03:52:13;17.10;99.90
8563;DHT22;16392;52.508;13.468;2023-09-19T03:54:40;17.20;99.90
8563;DHT22;16392;52.508;13.468;2023-09-19T03:57:08;17.10;99.90
8563;DHT22;16392;52.508;13.468;2023-09-19T03:59:36;17.10;99.90
8563;DHT22;16392;52.508;13.468;2023-09-19T04:02:04;17.10;99.90
8563;DHT22;16392;52.508;13.468;2023-09-19T04:04:37;17.20;99.90
8563;DHT22;16392;52.508;13.468;2023-09-19T04:07:04;17.10;99.90
8563;DHT22;16392;52.508;13.468;2023-09-19T04:09:30;17.10;99.90
8563;DHT22;16392;52.508;13.468;2023-09-19T04:11:57;17.00;99.90
8563;DHT22;16392;52.508;13.468;2023-09-19T04:14:23;17.00;99.90
8563;DHT22;16392;52.508;13.468;2023-09-19T04:16:50;17.00;99.90
8563;DHT22;16392;52.508;13.468;2023-09-19T04:19:18;17.00;99.90
8563;DHT22;16392;52.508;13.468;2023-09-19T04:21:46;17.10;99.90
8563;DHT22;16392;52.508;13.468;2023-09-19T04:24:13;17.00;99.90
8563;DHT22;16392;52.508;13.468;2023-09-19T04:26:39;17.00;99.90
8563;DHT22;16392;52.508;13.468;2023-09-19T04:29:07;17.00;99.90
8563;DHT22;16392;52.508;13.468;2023-09-19T04:31:36;17.00;99.90
8563;DHT22;16392;52.508;13.468;2023-09-19T04:34:05;17.00;99.90
8563;DHT22;16392;52.508;13.468;2023-09-19T04:36:35;16.90;99.90
8563;DHT22;16392;52.508;13.468;2023-09-19T04:39:02;16.90;99.90
8563;DHT22;16392;52.508;13.468;2023-09-19T04:41:31;16.90;99.90
8563;DHT22;16392;52.508;13.468;2023-09-19T04:43:57;17.00;99.90
8563;DHT22;16392;52.508;13.468;2023-09-19T04:46:24;17.00;99.90
8563;DHT22;16392;52.508;13.468;2023-09-19T04:48:51;17.00;99.90
8563;DHT22;16392;52.508;13.468;2023-09-19T04:51:17;17.00;99.90
8563;DHT22;16392;52.508;13.468;2023-09-19T04:53:45;16.90;99.90
8563;DHT22;16392;52.508;13.468;2023-09-19T04:56:13;16.90;99.90
8563;DHT22;16392;52.508;13.468;2023-09-19T04:58:40;17.00;99.90
8563;DHT22;16392;52.508;13.468;2023-09-19T05:01:07;16.90;99.90
8563;DHT22;16392;52.508;13.468;2023-09-19T05:03:36;16.90;99.90
8563;DHT22;16392;52.508;13.468;2023-09-19T05:06:03;16.80;99.90
8563;DHT22;16392;52.508;13.468;2023-09-19T05:08:30;16.80;99.90
8563;DHT22;16392;52.508;13.468;2023-09-19T05:11:01;16.80;99.90
8563;DHT22;16392;52.508;13.468;2023-09-19T05:13:28;16.80;99.90
8563;DHT22;16392;52.508;13.468;2023-09-19T05:15:59;16.70;99.90
8563;DHT22;16392;52.508;13.468;2023-09-19T05:18:27;16.70;99.90
8563;DHT22;16392;52.508;13.468;2023-09-19T05:20:53;16.70;99.90
8563;DHT22;16392;52.508;13.468;2023-09-19T05:23:21;16.80;99.90
8563;DHT22;16392;52.508;13.468;2023-09-19T05:25:48;16.80;99.90
8563;DHT22;16392;52.508;13.468;2023-09-19T05:28:16;16.80;99.90
8563;DHT22;16392;52.508;13.468;2023-09-19T05:30:42;16.90;99.90
8563;DHT22;16392;52.508;13.468;2023-09-19T05:33:09;16.90;99.90
8563;DHT22;16392;52.508;13.468;2023-09-19T05:35:36;16.90;99.90
8563;DHT22;16392;52.508;13.468;2023-09-19T05:38:05;16.90;99.90
8563;DHT22;16392;52.508;13.468;2023-09-19T05:40:34;17.00;99.90
8563;DHT22;16392;52.508;13.468;2023-09-19T05:43:01;17.00;99.90
8563;DHT22;16392;52.508;13.468;2023-09-19T05:45:30;17.00;99.90
8563;DHT22;16392;52.508;13.468;2023-09-19T05:48:07;17.00;99.90
8563;DHT22;16392;52.508;13.468;2023-09-19T05:50:34;17.00;99.90
8563;DHT22;16392;52.508;13.468;2023-09-19T05:53:01;17.10;99.90
8563;DHT22;16392;52.508;13.468;2023-09-19T05:55:29;17.20;99.90
8563;DHT22;16392;52.508;13.468;2023-09-19T05:57:56;17.20;99.90
8563;DHT22;16392;52.508;13.468;2023-09-19T06:00:23;17.30;99.90
8563;DHT22;16392;52.508;13.468;2023-09-19T06:02:54;17.30;99.90
8563;DHT22;16392;52.508;13.468;2023-09-19T06:05:22;17.50;99.90
8563;DHT22;16392;52.508;13.468;2023-09-19T06:07:49;17.70;99.90
8563;DHT22;16392;52.508;13.468;2023-09-19T06:10:17;17.90;99.90
8563;DHT22;16392;52.508;13.468;2023-09-19T06:12:46;18.00;99.90
8563;DHT22;16392;52.508;13.468;2023-09-19T06:15:14;18.10;99.90
8563;DHT22;16392;52.508;13.468;2023-09-19T06:17:42;18.00;99.90
8563;DHT22;16392;52.508;13.468;2023-09-19T06:20:11;18.10;99.90
8563;DHT22;16392;52.508;13.468;2023-09-19T06:22:40;18.40;99.90
8563;DHT22;16392;52.508;13.468;2023-09-19T06:25:08;18.60;99.90
8563;DHT22;16392;52.508;13.468;2023-09-19T06:27:37;18.70;99.90
8563;DHT22;16392;52.508;13.468;2023-09-19T06:30:06;18.90;99.90
8563;DHT22;16392;52.508;13.468;2023-09-19T06:32:33;18.70;99.90
8563;DHT22;16392;52.508;13.468;2023-09-19T06:35:00;19.00;99.90
8563;DHT22;16392;52.508;13.468;2023-09-19T06:37:29;19.10;99.90
8563;DHT22;16392;52.508;13.468;2023-09-19T06:39:55;19.50;99.90
8563;DHT22;16392;52.508;13.468;2023-09-19T06:42:22;19.80;99.90
8563;DHT22;16392;52.508;13.468;2023-09-19T06:44:49;19.90;99.90
8563;DHT22;16392;52.508;13.468;2023-09-19T06:47:20;19.80;99.90
8563;DHT22;16392;52.508;13.468;2023-09-19T06:49:47;20.20;99.90
8563;DHT22;16392;52.508;13.468;2023-09-19T06:52:15;20.80;99.90
8563;DHT22;16392;52.508;13.468;2023-09-19T06:54:44;21.40;1.00
8563;DHT22;16392;52.508;13.468;2023-09-19T06:57:10;21.30;1.00
8563;DHT22;16392;52.508;13.468;2023-09-19T06:59:39;21.30;1.00
8563;DHT22;16392;52.508;13.468;2023-09-19T07:02:06;21.00;1.00
8563;DHT22;16392;52.508;13.468;2023-09-19T07:04:34;21.40;1.00
8563;DHT22;16392;52.508;13.468;2023-09-19T07:07:00;21.10;1.00
8563;DHT22;16392;52.508;13.468;2023-09-19T07:09:27;21.70;1.00
8563;DHT22;16392;52.508;13.468;2023-09-19T07:11:55;22.80;1.00
8563;DHT22;16392;52.508;13.468;2023-09-19T07:14:22;23.50;99.90
8563;DHT22;16392;52.508;13.468;2023-09-19T07:16:49;24.20;99.90
8563;DHT22;16392;52.508;13.468;2023-09-19T07:19:17;24.00;99.90
8563;DHT22;16392;52.508;13.468;2023-09-19T07:21:44;23.70;1.00
8563;DHT22;16392;52.508;13.468;2023-09-19T07:24:13;24.00;97.30
8563;DHT22;16392;52.508;13.468;2023-09-19T07:26:39;22.90;99.90
8563;DHT22;16392;52.508;13.468;2023-09-19T07:29:07;22.70;1.00
8563;DHT22;16392;52.508;13.468;2023-09-19T07:31:34;23.90;32.10
8563;DHT22;16392;52.508;13.468;2023-09-19T07:34:00;23.60;99.90
8563;DHT22;16392;52.508;13.468;2023-09-19T07:36:29;22.80;72.40
8563;DHT22;16392;52.508;13.468;2023-09-19T07:38:56;23.00;99.90
8563;DHT22;16392;52.508;13.468;2023-09-19T07:41:23;22.20;99.90
8563;DHT22;16392;52.508;13.468;2023-09-19T07:43:51;21.80;1.00
8563;DHT22;16392;52.508;13.468;2023-09-19T07:46:19;21.90;1.00
8563;DHT22;16392;52.508;13.468;2023-09-19T07:48:49;22.00;99.90
8563;DHT22;16392;52.508;13.468;2023-09-19T07:51:16;21.70;1.00
8563;DHT22;16392;52.508;13.468;2023-09-19T07:53:43;21.20;1.00
8563;DHT22;16392;52.508;13.468;2023-09-19T07:56:10;21.10;1.00
8563;DHT22;16392;52.508;13.468;2023-09-19T07:58:39;21.10;1.00
8563;DHT22;16392;52.508;13.468;2023-09-19T08:01:10;21.50;1.00
8563;DHT22;16392;52.508;13.468;2023-09-19T08:03:40;22.20;99.90
8563;DHT22;16392;52.508;13.468;2023-09-19T08:06:07;22.40;99.90
8563;DHT22;16392;52.508;13.468;2023-09-19T08:08:34;22.30;1.00
8563;DHT22;16392;52.508;13.468;2023-09-19T08:11:03;21.60;99.90
8563;DHT22;16392;52.508;13.468;2023-09-19T08:13:36;21.50;1.00
8563;DHT22;16392;52.508;13.468;2023-09-19T08:16:03;21.40;97.20
8563;DHT22;16392;52.508;13.468;2023-09-19T08:18:30;20.90;99.90
8563;DHT22;16392;52.508;13.468;2023-09-19T08:20:57;21.50;99.90
8563;DHT22;16392;52.508;13.468;2023-09-19T08:23:26;22.20;1.00
8563;DHT22;16392;52.508;13.468;2023-09-19T08:25:56;22.10;99.90
8563;DHT22;16392;52.508;13.468;2023-09-19T08:28:23;21.80;1.00
8563;DHT22;16392;52.508;13.468;2023-09-19T08:30:50;21.10;1.00
8563;DHT22;16392;52.508;13.468;2023-09-19T08:33:16;20.60;99.90
8563;DHT22;16392;52.508;13.468;2023-09-19T08:35:43;20.70;99.90
8563;DHT22;16392;52.508;13.468;2023-09-19T08:38:13;20.80;99.90
8563;DHT22;16392;52.508;13.468;2023-09-19T08:40:40;20.70;99.90
8563;DHT22;16392;52.508;13.468;2023-09-19T08:43:09;20.50;99.90
8563;DHT22;16392;52.508;13.468;2023-09-19T08:45:36;21.00;99.90
8563;DHT22;16392;52.508;13.468;2023-09-19T08:48:17;22.00;99.90
8563;DHT22;16392;52.508;13.468;2023-09-19T08:50:49;22.50;99.90
8563;DHT22;16392;52.508;13.468;2023-09-19T08:53:26;22.50;99.90
8563;DHT22;16392;52.508;13.468;2023-09-19T08:55:55;21.90;1.00
8563;DHT22;16392;52.508;13.468;2023-09-19T08:58:25;21.80;99.90
8563;DHT22;16392;52.508;13.468;2023-09-19T09:00:55;21.70;1.00
8563;DHT22;16392;52.508;13.468;2023-09-19T09:03:22;21.90;99.90
8563;DHT22;16392;52.508;13.468;2023-09-19T09:05:50;22.00;99.90
8563;DHT22;16392;52.508;13.468;2023-09-19T09:08:18;21.80;99.90
8563;DHT22;16392;52.508;13.468;2023-09-19T09:10:49;22.30;1.00
8563;DHT22;16392;52.508;13.468;2023-09-19T09:13:16;22.20;1.00
8563;DHT22;16392;52.508;13.468;2023-09-19T09:15:43;22.20;1.00
8563;DHT22;16392;52.508;13.468;2023-09-19T09:18:11;23.10;99.90
8563;DHT22;16392;52.508;13.468;2023-09-19T09:20:38;23.30;17.90
8563;DHT22;16392;52.508;13.468;2023-09-19T09:23:05;22.80;99.90
8563;DHT22;16392;52.508;13.468;2023-09-19T09:25:50;22.80;99.90
8563;DHT22;16392;52.508;13.468;2023-09-19T09:28:22;23.20;1.00
8563;DHT22;16392;52.508;13.468;2023-09-19T09:30:49;23.80;1.00
8563;DHT22;16392;52.508;13.468;2023-09-19T09:33:16;24.20;99.90
8563;DHT22;16392;52.508;13.468;2023-09-19T09:35:51;23.90;99.90
8563;DHT22;16392;52.508;13.468;2023-09-19T09:38:19;24.40;99.90
8563;DHT22;16392;52.508;13.468;2023-09-19T09:40:49;24.60;99.90
8563;DHT22;16392;52.508;13.468;2023-09-19T09:43:27;24.90;1.00
8563;DHT22;16392;52.508;13.468;2023-09-19T09:46:11;24.90;1.00
8563;DHT22;16392;52.508;13.468;2023-09-19T09:48:59;25.00;1.00
8563;DHT22;16392;52.508;13.468;2023-09-19T09:51:45;24.70;1.00
8563;DHT22;16392;52.508;13.468;2023-09-19T09:54:23;24.90;1.00
8563;DHT22;16392;52.508;13.468;2023-09-19T09:56:55;24.70;1.00
8563;DHT22;16392;52.508;13.468;2023-09-19T09:59:47;24.50;1.00
8563;DHT22;16392;52.508;13.468;2023-09-19T10:02:17;25.20;1.00
8563;DHT22;16392;52.508;13.468;2023-09-19T10:04:54;24.80;1.00
8563;DHT22;16392;52.508;13.468;2023-09-19T10:07:33;24.90;1.00
8563;DHT22;16392;52.508;13.468;2023-09-19T10:10:02;24.60;1.00
8563;DHT22;16392;52.508;13.468;2023-09-19T10:12:45;24.90;1.00
8563;DHT22;16392;52.508;13.468;2023-09-19T10:15:15;24.90;1.00
8563;DHT22;16392;52.508;13.468;2023-09-19T10:17:44;24.60;1.00
8563;DHT22;16392;52.508;13.468;2023-09-19T10:20:15;24.90;1.00
8563;DHT22;16392;52.508;13.468;2023-09-19T10:23:05;25.40;1.00
8563;DHT22;16392;52.508;13.468;2023-09-19T10:25:37;25.50;1.00
8563;DHT22;16392;52.508;13.468;2023-09-19T10:28:07;24.90;1.00
8563;DHT22;16392;52.508;13.468;2023-09-19T10:30:37;24.80;1.00
8563;DHT22;16392;52.508;13.468;2023-09-19T10:33:07;24.80;1.00
8563;DHT22;16392;52.508;13.468;2023-09-19T10:35:38;24.70;1.00
8563;DHT22;16392;52.508;13.468;2023-09-19T10:38:06;24.70;1.00
8563;DHT22;16392;52.508;13.468;2023-09-19T10:40:35;24.10;1.00
8563;DHT22;16392;52.508;13.468;2023-09-19T10:43:03;23.40;1.00
8563;DHT22;16392;52.508;13.468;2023-09-19T10:45:34;23.70;1.00
8563;DHT22;16392;52.508;13.468;2023-09-19T10:48:02;23.50;1.00
8563;DHT22;16392;52.508;13.468;2023-09-19T10:50:31;23.20;1.00
8563;DHT22;16392;52.508;13.468;2023-09-19T10:53:01;23.10;1.00
8563;DHT22;16392;52.508;13.468;2023-09-19T10:55:31;23.30;1.00
8563;DHT22;16392;52.508;13.468;2023-09-19T10:58:01;23.50;1.00
8563;DHT22;16392;52.508;13.468;2023-09-19T11:00:31;23.40;1.00
8563;DHT22;16392;52.508;13.468;2023-09-19T11:03:17;23.10;1.00
8563;DHT22;16392;52.508;13.468;2023-09-19T11:06:01;22.80;1.00
8563;DHT22;16392;52.508;13.468;2023-09-19T11:08:30;23.30;1.00
8563;DHT22;16392;52.508;13.468;2023-09-19T11:10:58;23.40;1.00
8563;DHT22;16392;52.508;13.468;2023-09-19T11:13:29;23.40;1.00
8563;DHT22;16392;52.508;13.468;2023-09-19T11:16:05;23.30;1.00
8563;DHT22;16392;52.508;13.468;2023-09-19T11:18:51;23.00;1.00
8563;DHT22;16392;52.508;13.468;2023-09-19T11:21:51;23.50;1.00
8563;DHT22;16392;52.508;13.468;2023-09-19T11:24:30;23.80;1.00
8563;DHT22;16392;52.508;13.468;2023-09-19T11:27:15;23.50;1.00
8563;DHT22;16392;52.508;13.468;2023-09-19T11:29:44;23.50;1.00
8563;DHT22;16392;52.508;13.468;2023-09-19T11:32:12;23.70;1.00
8563;DHT22;16392;52.508;13.468;2023-09-19T11:34:48;23.90;1.00
8563;DHT22;16392;52.508;13.468;2023-09-19T11:40:33;23.60;99.90
8563;DHT22;16392;52.508;13.468;2023-09-19T11:43:29;23.10;1.00
8563;DHT22;16392;52.508;13.468;2023-09-19T11:46:08;23.70;1.00
8563;DHT22;16392;52.508;13.468;2023-09-19T11:48:38;23.70;99.90
8563;DHT22;16392;52.508;13.468;2023-09-19T11:51:15;23.60;99.90
8563;DHT22;16392;52.508;13.468;2023-09-19T11:53:45;23.30;1.00
8563;DHT22;16392;52.508;13.468;2023-09-19T11:56:15;23.20;1.00
8563;DHT22;16392;52.508;13.468;2023-09-19T11:58:43;23.00;1.00
8563;DHT22;16392;52.508;13.468;2023-09-19T12:01:13;23.00;1.00
8563;DHT22;16392;52.508;13.468;2023-09-19T12:03:50;23.00;1.00
8563;DHT22;16392;52.508;13.468;2023-09-19T12:06:19;23.20;1.00
8563;DHT22;16392;52.508;13.468;2023-09-19T12:08:47;23.00;1.00
8563;DHT22;16392;52.508;13.468;2023-09-19T12:11:16;22.90;1.00
8563;DHT22;16392;52.508;13.468;2023-09-19T12:13:44;22.80;1.00
8563;DHT22;16392;52.508;13.468;2023-09-19T12:16:16;22.80;1.00
8563;DHT22;16392;52.508;13.468;2023-09-19T12:18:44;22.90;1.00
8563;DHT22;16392;52.508;13.468;2023-09-19T12:21:23;23.20;1.00
8563;DHT22;16392;52.508;13.468;2023-09-19T12:23:58;23.50;1.00
8563;DHT22;16392;52.508;13.468;2023-09-19T12:26:26;23.50;1.00
8563;DHT22;16392;52.508;13.468;2023-09-19T12:28:54;23.60;99.90
8563;DHT22;16392;52.508;13.468;2023-09-19T12:31:21;23.30;99.90
8563;DHT22;16392;52.508;13.468;2023-09-19T12:33:53;22.90;1.00
8563;DHT22;16392;52.508;13.468;2023-09-19T12:36:20;23.00;1.00
8563;DHT22;16392;52.508;13.468;2023-09-19T12:38:52;23.10;1.00
8563;DHT22;16392;52.508;13.468;2023-09-19T12:41:20;23.30;99.90
8563;DHT22;16392;52.508;13.468;2023-09-19T12:43:48;23.10;99.90
8563;DHT22;16392;52.508;13.468;2023-09-19T12:46:14;23.10;99.90
8563;DHT22;16392;52.508;13.468;2023-09-19T12:48:45;23.50;99.90
8563;DHT22;16392;52.508;13.468;2023-09-19T12:51:13;23.20;99.90
8563;DHT22;16392;52.508;13.468;2023-09-19T12:53:42;23.30;99.90
8563;DHT22;16392;52.508;13.468;2023-09-19T12:56:13;23.50;99.90
8563;DHT22;16392;52.508;13.468;2023-09-19T12:58:51;23.60;99.90
8563;DHT22;16392;52.508;13.468;2023-09-19T13:01:19;23.20;99.90
8563;DHT22;16392;52.508;13.468;2023-09-19T13:04:15;23.50;99.90
8563;DHT22;16392;52.508;13.468;2023-09-19T13:06:45;23.40;99.90
8563;DHT22;16392;52.508;13.468;2023-09-19T13:09:14;23.50;99.90
8563;DHT22;16392;52.508;13.468;2023-09-19T13:11:43;23.40;99.90
8563;DHT22;16392;52.508;13.468;2023-09-19T13:14:16;23.30;99.90
8563;DHT22;16392;52.508;13.468;2023-09-19T13:16:57;23.40;99.90
8563;DHT22;16392;52.508;13.468;2023-09-19T13:19:39;23.10;1.00
8563;DHT22;16392;52.508;13.468;2023-09-19T13:22:37;22.60;1.00
8563;DHT22;16392;52.508;13.468;2023-09-19T13:25:05;22.40;1.00
8563;DHT22;16392;52.508;13.468;2023-09-19T13:27:33;22.50;1.00
8563;DHT22;16392;52.508;13.468;2023-09-19T13:30:00;22.20;1.00
8563;DHT22;16392;52.508;13.468;2023-09-19T13:32:26;22.10;1.00
8563;DHT22;16392;52.508;13.468;2023-09-19T13:34:53;22.20;1.00
8563;DHT22;16392;52.508;13.468;2023-09-19T13:37:20;22.30;1.00
8563;DHT22;16392;52.508;13.468;2023-09-19T13:39:47;22.40;1.00
8563;DHT22;16392;52.508;13.468;2023-09-19T13:42:14;22.60;1.00
8563;DHT22;16392;52.508;13.468;2023-09-19T13:44:43;22.60;1.00
8563;DHT22;16392;52.508;13.468;2023-09-19T13:47:09;22.50;1.00
8563;DHT22;16392;52.508;13.468;2023-09-19T13:49:39;22.40;1.00
8563;DHT22;16392;52.508;13.468;2023-09-19T13:52:05;22.30;1.00
8563;DHT22;16392;52.508;13.468;2023-09-19T13:54:32;22.40;1.00
8563;DHT22;16392;52.508;13.468;2023-09-19T13:57:00;22.40;1.00
8563;DHT22;16392;52.508;13.468;2023-09-19T13:59:27;22.40;1.00
8563;DHT22;16392;52.508;13.468;2023-09-19T14:01:55;22.40;1.00
8563;DHT22;16392;52.508;13.468;2023-09-19T14:04:22;21.80;1.00
8563;DHT22;16392;52.508;13.468;2023-09-19T14:06:49;22.00;1.00
8563;DHT22;16392;52.508;13.468;2023-09-19T14:09:15;22.30;1.00
8563;DHT22;16392;52.508;13.468;2023-09-19T14:11:44;22.40;1.00
8563;DHT22;16392;52.508;13.468;2023-09-19T14:14:12;22.40;1.00
8563;DHT22;16392;52.508;13.468;2023-09-19T14:16:40;22.20;1.00
8563;DHT22;16392;52.508;13.468;2023-09-19T14:19:08;22.40;1.00
8563;DHT22;16392;52.508;13.468;2023-09-19T14:21:35;22.70;1.00
8563;DHT22;16392;52.508;13.468;2023-09-19T14:24:05;22.70;1.00
8563;DHT22;16392;52.508;13.468;2023-09-19T14:26:34;22.60;1.00
8563;DHT22;16392;52.508;13.468;2023-09-19T14:29:01;22.50;1.00
8563;DHT22;16392;52.508;13.468;2023-09-19T14:31:28;22.20;1.00
8563;DHT22;16392;52.508;13.468;2023-09-19T14:33:55;22.00;1.00
8563;DHT22;16392;52.508;13.468;2023-09-19T14:36:24;21.80;1.00
8563;DHT22;16392;52.508;13.468;2023-09-19T14:38:52;21.70;1.00
8563;DHT22;16392;52.508;13.468;2023-09-19T14:41:20;21.60;1.00
8563;DHT22;16392;52.508;13.468;2023-09-19T14:43:48;21.40;1.00
8563;DHT22;16392;52.508;13.468;2023-09-19T14:46:15;21.50;1.00
8563;DHT22;16392;52.508;13.468;2023-09-19T14:48:44;21.60;1.00
8563;DHT22;16392;52.508;13.468;2023-09-19T14:51:13;21.60;1.00
8563;DHT22;16392;52.508;13.468;2023-09-19T14:53:41;21.50;1.00
8563;DHT22;16392;52.508;13.468;2023-09-19T14:56:09;21.50;1.00
8563;DHT22;16392;52.508;13.468;2023-09-19T14:58:37;21.40;1.00
8563;DHT22;16392;52.508;13.468;2023-09-19T15:01:06;21.40;1.00
8563;DHT22;16392;52.508;13.468;2023-09-19T15:03:33;21.20;1.00
8563;DHT22;16392;52.508;13.468;2023-09-19T15:06:03;21.20;1.00
8563;DHT22;16392;52.508;13.468;2023-09-19T15:08:31;21.20;1.00
8563;DHT22;16392;52.508;13.468;2023-09-19T15:11:01;21.10;1.00
8563;DHT22;16392;52.508;13.468;2023-09-19T15:13:29;21.10;1.00
8563;DHT22;16392;52.508;13.468;2023-09-19T15:15:59;21.20;1.00
8563;DHT22;16392;52.508;13.468;2023-09-19T15:18:26;21.10;1.00
8563;DHT22;16392;52.508;13.468;2023-09-19T15:20:52;21.20;1.00
8563;DHT22;16392;52.508;13.468;2023-09-19T15:23:20;21.20;1.00
8563;DHT22;16392;52.508;13.468;2023-09-19T15:25:47;21.20;1.00
8563;DHT22;16392;52.508;13.468;2023-09-19T15:28:15;21.10;1.00
8563;DHT22;16392;52.508;13.468;2023-09-19T15:30:42;21.00;1.00
8563;DHT22;16392;52.508;13.468;2023-09-19T15:33:08;20.80;1.00
8563;DHT22;16392;52.508;13.468;2023-09-19T15:35:36;20.80;1.00
8563;DHT22;16392;52.508;13.468;2023-09-19T15:38:03;20.80;1.00
8563;DHT22;16392;52.508;13.468;2023-09-19T15:40:30;20.80;1.00
8563;DHT22;16392;52.508;13.468;2023-09-19T15:42:56;20.80;1.00
8563;DHT22;16392;52.508;13.468;2023-09-19T15:45:24;20.80;1.00
8563;DHT22;16392;52.508;13.468;2023-09-19T15:47:51;20.80;1.00
8563;DHT22;16392;52.508;13.468;2023-09-19T15:50:18;20.80;1.00
8563;DHT22;16392;52.508;13.468;2023-09-19T15:52:45;20.80;1.00
8563;DHT22;16392;52.508;13.468;2023-09-19T15:55:12;20.70;1.00
8563;DHT22;16392;52.508;13.468;2023-09-19T15:57:40;20.70;1.00